sensor_id;sensor_type;location;lat;lon;timestamp;P1;durP1;ratioP1;P2;durP2;ratioP2
47089;SDS011;32840;52.516;13.294;2023-12-20T00:00:16;5.22;;;4.47;;
47089;SDS011;32840;52.516;13.294;2023-12-20T00:03:01;7.72;;;5.03;;
47089;SDS011;32840;52.516;13.294;2023-12-20T00:05:49;5.72;;;4.10;;
47089;SDS011;32840;52.516;13.294;2023-12-20T00:08:34;8.23;;;4.63;;
47089;SDS011;32840;52.516;13.294;2023-12-20T00:11:20;6.57;;;4.63;;
47089;SDS011;32840;52.516;13.294;2023-12-20T00:14:09;5.72;;;4.47;;
47089;SDS011;32840;52.516;13.294;2023-12-20T00:16:55;5.60;;;4.57;;
47089;SDS011;32840;52.516;13.294;2023-12-20T00:19:40;6.10;;;4.55;;
47089;SDS011;32840;52.516;13.294;2023-12-20T00:22:25;5.40;;;4.63;;
47089;SDS011;32840;52.516;13.294;2023-12-20T00:25:10;5.93;;;4.70;;
47089;SDS011;32840;52.516;13.294;2023-12-20T00:27:55;5.10;;;4.05;;
47089;SDS011;32840;52.516;13.294;2023-12-20T00:30:41;5.95;;;4.55;;
47089;SDS011;32840;52.516;13.294;2023-12-20T00:33:26;5.85;;;4.72;;
47089;SDS011;32840;52.516;13.294;2023-12-20T00:36:10;4.82;;;4.28;;
47089;SDS011;32840;52.516;13.294;2023-12-20T00:39:07;5.70;;;4.70;;
47089;SDS011;32840;52.516;13.294;2023-12-20T00:42:36;5.38;;;4.15;;
47089;SDS011;32840;52.516;13.294;2023-12-20T00:45:20;5.78;;;4.35;;
47089;SDS011;32840;52.516;13.294;2023-12-20T00:48:05;5.00;;;4.25;;
47089;SDS011;32840;52.516;13.294;2023-12-20T00:50:50;6.15;;;4.30;;
47089;SDS011;32840;52.516;13.294;2023-12-20T00:53:36;7.90;;;4.15;;
47089;SDS011;32840;52.516;13.294;2023-12-20T00:56:21;6.38;;;5.00;;
47089;SDS011;32840;52.516;13.294;2023-12-20T00:59:06;5.53;;;4.57;;
47089;SDS011;32840;52.516;13.294;2023-12-20T01:01:53;5.20;;;4.40;;
47089;SDS011;32840;52.516;13.294;2023-12-20T01:04:38;6.07;;;4.80;;
47089;SDS011;32840;52.516;13.294;2023-12-20T01:07:25;6.10;;;5.38;;
47089;SDS011;32840;52.516;13.294;2023-12-20T01:10:10;5.38;;;4.57;;
47089;SDS011;32840;52.516;13.294;2023-12-20T01:12:56;6.53;;;5.10;;
47089;SDS011;32840;52.516;13.294;2023-12-20T01:15:41;6.28;;;4.75;;
47089;SDS011;32840;52.516;13.294;2023-12-20T01:18:26;7.03;;;5.63;;
47089;SDS011;32840;52.516;13.294;2023-12-20T01:21:11;6.13;;;4.85;;
47089;SDS011;32840;52.516;13.294;2023-12-20T01:23:56;6.00;;;5.07;;
47089;SDS011;32840;52.516;13.294;2023-12-20T01:26:41;6.88;;;5.40;;
47089;SDS011;32840;52.516;13.294;2023-12-20T01:29:26;6.07;;;4.80;;
47089;SDS011;32840;52.516;13.294;2023-12-20T01:32:12;6.25;;;4.97;;
47089;SDS011;32840;52.516;13.294;2023-12-20T01:34:57;6.78;;;5.40;;
47089;SDS011;32840;52.516;13.294;2023-12-20T01:37:42;6.75;;;5.25;;
47089;SDS011;32840;52.516;13.294;2023-12-20T01:40:28;6.10;;;4.50;;
47089;SDS011;32840;52.516;13.294;2023-12-20T01:43:13;6.25;;;4.90;;
47089;SDS011;32840;52.516;13.294;2023-12-20T01:46:01;5.45;;;4.10;;
47089;SDS011;32840;52.516;13.294;2023-12-20T01:48:47;4.93;;;4.00;;
47089;SDS011;32840;52.516;13.294;2023-12-20T01:51:33;4.25;;;3.65;;
47089;SDS011;32840;52.516;13.294;2023-12-20T01:54:19;4.70;;;4.07;;
47089;SDS011;32840;52.516;13.294;2023-12-20T01:57:06;5.72;;;4.45;;
47089;SDS011;32840;52.516;13.294;2023-12-20T01:59:52;4.80;;;4.10;;
47089;SDS011;32840;52.516;13.294;2023-12-20T02:02:37;5.47;;;4.53;;
47089;SDS011;32840;52.516;13.294;2023-12-20T02:05:23;5.40;;;4.13;;
47089;SDS011;32840;52.516;13.294;2023-12-20T02:08:09;5.97;;;4.53;;
47089;SDS011;32840;52.516;13.294;2023-12-20T02:10:55;5.72;;;4.43;;
47089;SDS011;32840;52.516;13.294;2023-12-20T02:13:40;5.40;;;4.45;;
47089;SDS011;32840;52.516;13.294;2023-12-20T02:16:25;5.50;;;3.75;;
47089;SDS011;32840;52.516;13.294;2023-12-20T02:19:13;5.25;;;4.03;;
47089;SDS011;32840;52.516;13.294;2023-12-20T02:22:11;5.18;;;3.90;;
47089;SDS011;32840;52.516;13.294;2023-12-20T02:24:58;4.03;;;3.33;;
47089;SDS011;32840;52.516;13.294;2023-12-20T02:27:43;5.38;;;3.90;;
47089;SDS011;32840;52.516;13.294;2023-12-20T02:30:28;5.13;;;4.00;;
47089;SDS011;32840;52.516;13.294;2023-12-20T02:33:13;6.38;;;4.50;;
47089;SDS011;32840;52.516;13.294;2023-12-20T02:35:59;5.80;;;4.82;;
47089;SDS011;32840;52.516;13.294;2023-12-20T02:38:44;5.55;;;4.50;;
47089;SDS011;32840;52.516;13.294;2023-12-20T02:41:29;6.80;;;5.18;;
47089;SDS011;32840;52.516;13.294;2023-12-20T02:44:13;5.85;;;4.78;;
47089;SDS011;32840;52.516;13.294;2023-12-20T02:46:59;8.13;;;5.50;;
47089;SDS011;32840;52.516;13.294;2023-12-20T02:49:44;6.78;;;5.05;;
47089;SDS011;32840;52.516;13.294;2023-12-20T02:52:29;8.32;;;7.03;;
47089;SDS011;32840;52.516;13.294;2023-12-20T02:55:14;6.25;;;5.10;;
47089;SDS011;32840;52.516;13.294;2023-12-20T02:57:59;7.63;;;5.72;;
47089;SDS011;32840;52.516;13.294;2023-12-20T03:00:44;9.85;;;5.53;;
47089;SDS011;32840;52.516;13.294;2023-12-20T03:03:29;7.28;;;5.60;;
47089;SDS011;32840;52.516;13.294;2023-12-20T03:06:16;6.97;;;4.72;;
47089;SDS011;32840;52.516;13.294;2023-12-20T03:09:04;6.68;;;4.88;;
47089;SDS011;32840;52.516;13.294;2023-12-20T03:11:49;6.57;;;4.30;;
47089;SDS011;32840;52.516;13.294;2023-12-20T03:14:35;9.32;;;4.60;;
47089;SDS011;32840;52.516;13.294;2023-12-20T03:17:20;7.45;;;4.85;;
47089;SDS011;32840;52.516;13.294;2023-12-20T03:20:06;6.40;;;4.32;;
47089;SDS011;32840;52.516;13.294;2023-12-20T03:22:53;7.07;;;3.67;;
47089;SDS011;32840;52.516;13.294;2023-12-20T03:25:39;7.75;;;3.85;;
47089;SDS011;32840;52.516;13.294;2023-12-20T03:28:27;6.60;;;4.15;;
47089;SDS011;32840;52.516;13.294;2023-12-20T03:34:04;9.55;;;3.30;;
47089;SDS011;32840;52.516;13.294;2023-12-20T03:36:48;7.88;;;3.22;;
47089;SDS011;32840;52.516;13.294;2023-12-20T03:39:33;12.02;;;3.50;;
47089;SDS011;32840;52.516;13.294;2023-12-20T03:42:22;4.13;;;2.22;;
47089;SDS011;32840;52.516;13.294;2023-12-20T03:45:07;4.63;;;2.25;;
47089;SDS011;32840;52.516;13.294;2023-12-20T03:47:53;6.15;;;2.78;;
47089;SDS011;32840;52.516;13.294;2023-12-20T03:50:45;7.30;;;2.30;;
47089;SDS011;32840;52.516;13.294;2023-12-20T03:53:31;10.25;;;2.28;;
47089;SDS011;32840;52.516;13.294;2023-12-20T03:56:16;6.50;;;2.30;;
47089;SDS011;32840;52.516;13.294;2023-12-20T03:59:01;8.63;;;1.85;;
47089;SDS011;32840;52.516;13.294;2023-12-20T04:01:46;7.18;;;2.22;;
47089;SDS011;32840;52.516;13.294;2023-12-20T04:04:31;8.20;;;2.42;;
47089;SDS011;32840;52.516;13.294;2023-12-20T04:07:17;6.13;;;1.98;;
47089;SDS011;32840;52.516;13.294;2023-12-20T04:10:04;7.22;;;2.38;;
47089;SDS011;32840;52.516;13.294;2023-12-20T04:12:49;6.78;;;2.08;;
47089;SDS011;32840;52.516;13.294;2023-12-20T04:15:34;9.18;;;3.00;;
47089;SDS011;32840;52.516;13.294;2023-12-20T04:18:20;8.15;;;1.80;;
47089;SDS011;32840;52.516;13.294;2023-12-20T04:21:05;9.63;;;2.22;;
47089;SDS011;32840;52.516;13.294;2023-12-20T04:23:51;6.45;;;1.98;;
47089;SDS011;32840;52.516;13.294;2023-12-20T04:26:36;9.90;;;2.88;;
47089;SDS011;32840;52.516;13.294;2023-12-20T04:29:21;8.13;;;2.17;;
47089;SDS011;32840;52.516;13.294;2023-12-20T04:32:06;9.57;;;2.08;;
47089;SDS011;32840;52.516;13.294;2023-12-20T04:34:51;9.32;;;2.53;;
47089;SDS011;32840;52.516;13.294;2023-12-20T04:37:36;8.38;;;2.33;;
47089;SDS011;32840;52.516;13.294;2023-12-20T04:40:21;8.00;;;1.67;;
47089;SDS011;32840;52.516;13.294;2023-12-20T04:43:07;7.38;;;2.55;;
47089;SDS011;32840;52.516;13.294;2023-12-20T04:45:53;13.73;;;2.38;;
47089;SDS011;32840;52.516;13.294;2023-12-20T04:48:38;7.38;;;2.97;;
47089;SDS011;32840;52.516;13.294;2023-12-20T04:51:23;10.70;;;2.92;;
47089;SDS011;32840;52.516;13.294;2023-12-20T04:54:07;9.82;;;2.90;;
47089;SDS011;32840;52.516;13.294;2023-12-20T04:56:53;9.90;;;2.35;;
47089;SDS011;32840;52.516;13.294;2023-12-20T04:59:39;6.63;;;2.75;;
47089;SDS011;32840;52.516;13.294;2023-12-20T05:02:26;6.05;;;2.10;;
47089;SDS011;32840;52.516;13.294;2023-12-20T05:05:11;12.52;;;2.20;;
47089;SDS011;32840;52.516;13.294;2023-12-20T05:07:55;11.82;;;2.60;;
47089;SDS011;32840;52.516;13.294;2023-12-20T05:10:41;8.57;;;2.75;;
47089;SDS011;32840;52.516;13.294;2023-12-20T05:13:26;11.30;;;2.20;;
47089;SDS011;32840;52.516;13.294;2023-12-20T05:16:11;10.57;;;2.67;;
47089;SDS011;32840;52.516;13.294;2023-12-20T05:18:58;9.38;;;2.30;;
47089;SDS011;32840;52.516;13.294;2023-12-20T05:21:45;11.43;;;3.13;;
47089;SDS011;32840;52.516;13.294;2023-12-20T05:24:30;10.30;;;2.00;;
47089;SDS011;32840;52.516;13.294;2023-12-20T05:27:14;11.93;;;1.83;;
47089;SDS011;32840;52.516;13.294;2023-12-20T05:29:59;11.68;;;2.47;;
47089;SDS011;32840;52.516;13.294;2023-12-20T05:32:44;11.23;;;2.05;;
47089;SDS011;32840;52.516;13.294;2023-12-20T05:35:30;6.68;;;1.67;;
47089;SDS011;32840;52.516;13.294;2023-12-20T05:38:15;9.13;;;2.03;;
47089;SDS011;32840;52.516;13.294;2023-12-20T05:41:00;6.75;;;1.60;;
47089;SDS011;32840;52.516;13.294;2023-12-20T05:43:45;9.20;;;1.70;;
47089;SDS011;32840;52.516;13.294;2023-12-20T05:46:30;7.68;;;2.92;;
47089;SDS011;32840;52.516;13.294;2023-12-20T05:49:15;7.40;;;1.65;;
47089;SDS011;32840;52.516;13.294;2023-12-20T05:52:00;9.73;;;1.90;;
47089;SDS011;32840;52.516;13.294;2023-12-20T05:54:50;10.45;;;2.53;;
47089;SDS011;32840;52.516;13.294;2023-12-20T05:57:36;8.32;;;1.77;;
47089;SDS011;32840;52.516;13.294;2023-12-20T06:00:22;8.57;;;1.90;;
47089;SDS011;32840;52.516;13.294;2023-12-20T06:03:07;9.95;;;2.47;;
47089;SDS011;32840;52.516;13.294;2023-12-20T06:05:52;11.25;;;1.77;;
47089;SDS011;32840;52.516;13.294;2023-12-20T06:08:36;15.50;;;2.85;;
47089;SDS011;32840;52.516;13.294;2023-12-20T06:11:21;8.93;;;1.83;;
47089;SDS011;32840;52.516;13.294;2023-12-20T06:14:08;5.05;;;2.00;;
47089;SDS011;32840;52.516;13.294;2023-12-20T06:16:53;10.20;;;2.45;;
47089;SDS011;32840;52.516;13.294;2023-12-20T06:19:38;9.07;;;1.80;;
47089;SDS011;32840;52.516;13.294;2023-12-20T06:22:24;10.55;;;2.55;;
47089;SDS011;32840;52.516;13.294;2023-12-20T06:25:09;10.55;;;2.03;;
47089;SDS011;32840;52.516;13.294;2023-12-20T06:27:54;9.27;;;2.10;;
47089;SDS011;32840;52.516;13.294;2023-12-20T06:30:42;12.52;;;2.97;;
47089;SDS011;32840;52.516;13.294;2023-12-20T06:33:27;17.75;;;2.38;;
47089;SDS011;32840;52.516;13.294;2023-12-20T06:36:15;12.45;;;2.10;;
47089;SDS011;32840;52.516;13.294;2023-12-20T06:39:05;11.00;;;1.67;;
47089;SDS011;32840;52.516;13.294;2023-12-20T06:41:57;11.82;;;1.92;;
47089;SDS011;32840;52.516;13.294;2023-12-20T06:47:26;11.20;;;2.40;;
47089;SDS011;32840;52.516;13.294;2023-12-20T06:50:12;9.95;;;1.83;;
47089;SDS011;32840;52.516;13.294;2023-12-20T06:52:57;7.75;;;1.75;;
47089;SDS011;32840;52.516;13.294;2023-12-20T06:55:41;8.75;;;2.72;;
47089;SDS011;32840;52.516;13.294;2023-12-20T06:58:26;15.02;;;2.33;;
47089;SDS011;32840;52.516;13.294;2023-12-20T07:01:12;15.75;;;2.40;;
47089;SDS011;32840;52.516;13.294;2023-12-20T07:03:57;9.95;;;2.00;;
47089;SDS011;32840;52.516;13.294;2023-12-20T07:06:42;16.60;;;2.45;;
47089;SDS011;32840;52.516;13.294;2023-12-20T07:09:30;11.18;;;2.53;;
47089;SDS011;32840;52.516;13.294;2023-12-20T07:12:19;12.75;;;1.90;;
47089;SDS011;32840;52.516;13.294;2023-12-20T07:15:09;7.40;;;2.00;;
47089;SDS011;32840;52.516;13.294;2023-12-20T07:17:54;15.02;;;2.25;;
47089;SDS011;32840;52.516;13.294;2023-12-20T07:20:39;10.05;;;2.22;;
47089;SDS011;32840;52.516;13.294;2023-12-20T07:23:25;10.45;;;2.75;;
47089;SDS011;32840;52.516;13.294;2023-12-20T07:26:11;8.10;;;2.10;;
47089;SDS011;32840;52.516;13.294;2023-12-20T07:28:55;8.63;;;2.30;;
47089;SDS011;32840;52.516;13.294;2023-12-20T07:31:40;12.02;;;3.03;;
47089;SDS011;32840;52.516;13.294;2023-12-20T07:34:27;12.75;;;2.55;;
47089;SDS011;32840;52.516;13.294;2023-12-20T07:37:12;9.32;;;2.25;;
47089;SDS011;32840;52.516;13.294;2023-12-20T07:39:58;8.95;;;2.92;;
47089;SDS011;32840;52.516;13.294;2023-12-20T07:42:43;10.45;;;2.38;;
47089;SDS011;32840;52.516;13.294;2023-12-20T07:45:28;10.65;;;2.47;;
47089;SDS011;32840;52.516;13.294;2023-12-20T07:48:13;12.05;;;1.90;;
47089;SDS011;32840;52.516;13.294;2023-12-20T07:50:58;9.65;;;2.42;;
47089;SDS011;32840;52.516;13.294;2023-12-20T07:53:46;18.45;;;3.20;;
47089;SDS011;32840;52.516;13.294;2023-12-20T07:56:33;8.93;;;2.15;;
47089;SDS011;32840;52.516;13.294;2023-12-20T07:59:18;17.52;;;2.30;;
47089;SDS011;32840;52.516;13.294;2023-12-20T08:02:03;11.60;;;2.50;;
47089;SDS011;32840;52.516;13.294;2023-12-20T08:04:48;12.50;;;2.80;;
47089;SDS011;32840;52.516;13.294;2023-12-20T08:07:34;8.82;;;2.05;;
47089;SDS011;32840;52.516;13.294;2023-12-20T08:10:19;14.45;;;3.10;;
47089;SDS011;32840;52.516;13.294;2023-12-20T08:13:05;10.82;;;2.58;;
47089;SDS011;32840;52.516;13.294;2023-12-20T08:15:51;15.55;;;2.95;;
47089;SDS011;32840;52.516;13.294;2023-12-20T08:18:36;11.57;;;2.55;;
47089;SDS011;32840;52.516;13.294;2023-12-20T08:21:21;9.38;;;2.15;;
47089;SDS011;32840;52.516;13.294;2023-12-20T08:24:06;12.23;;;2.20;;
47089;SDS011;32840;52.516;13.294;2023-12-20T08:26:53;9.18;;;2.40;;
47089;SDS011;32840;52.516;13.294;2023-12-20T08:29:37;15.90;;;3.13;;
47089;SDS011;32840;52.516;13.294;2023-12-20T08:32:27;13.18;;;2.22;;
47089;SDS011;32840;52.516;13.294;2023-12-20T08:35:11;11.00;;;2.70;;
47089;SDS011;32840;52.516;13.294;2023-12-20T08:37:56;11.45;;;2.28;;
47089;SDS011;32840;52.516;13.294;2023-12-20T08:40:41;14.75;;;2.92;;
47089;SDS011;32840;52.516;13.294;2023-12-20T08:43:28;11.00;;;2.40;;
47089;SDS011;32840;52.516;13.294;2023-12-20T08:46:14;16.83;;;2.88;;
47089;SDS011;32840;52.516;13.294;2023-12-20T08:49:01;11.05;;;2.47;;
47089;SDS011;32840;52.516;13.294;2023-12-20T08:51:46;11.75;;;2.30;;
47089;SDS011;32840;52.516;13.294;2023-12-20T08:54:31;13.02;;;2.00;;
47089;SDS011;32840;52.516;13.294;2023-12-20T08:57:17;12.07;;;2.60;;
47089;SDS011;32840;52.516;13.294;2023-12-20T09:00:03;9.77;;;2.15;;
47089;SDS011;32840;52.516;13.294;2023-12-20T09:02:51;7.95;;;2.20;;
47089;SDS011;32840;52.516;13.294;2023-12-20T09:05:36;11.15;;;2.15;;
47089;SDS011;32840;52.516;13.294;2023-12-20T09:08:22;6.70;;;2.10;;
47089;SDS011;32840;52.516;13.294;2023-12-20T09:11:06;8.60;;;2.30;;
47089;SDS011;32840;52.516;13.294;2023-12-20T09:13:52;10.18;;;2.38;;
47089;SDS011;32840;52.516;13.294;2023-12-20T09:16:38;8.75;;;2.28;;
47089;SDS011;32840;52.516;13.294;2023-12-20T09:19:23;9.95;;;2.55;;
47089;SDS011;32840;52.516;13.294;2023-12-20T09:22:08;9.25;;;2.40;;
47089;SDS011;32840;52.516;13.294;2023-12-20T09:24:54;14.30;;;3.03;;
47089;SDS011;32840;52.516;13.294;2023-12-20T09:27:39;15.95;;;2.25;;
47089;SDS011;32840;52.516;13.294;2023-12-20T09:30:27;15.40;;;3.03;;
47089;SDS011;32840;52.516;13.294;2023-12-20T09:33:15;10.55;;;2.03;;
47089;SDS011;32840;52.516;13.294;2023-12-20T09:36:04;8.23;;;2.40;;
47089;SDS011;32840;52.516;13.294;2023-12-20T09:38:49;7.28;;;2.60;;
47089;SDS011;32840;52.516;13.294;2023-12-20T09:41:36;11.85;;;2.38;;
47089;SDS011;32840;52.516;13.294;2023-12-20T09:44:24;11.18;;;2.50;;
47089;SDS011;32840;52.516;13.294;2023-12-20T09:47:13;14.25;;;2.28;;
47089;SDS011;32840;52.516;13.294;2023-12-20T09:50:04;9.02;;;2.17;;
47089;SDS011;32840;52.516;13.294;2023-12-20T09:52:52;15.63;;;2.70;;
47089;SDS011;32840;52.516;13.294;2023-12-20T09:55:40;10.98;;;2.30;;
47089;SDS011;32840;52.516;13.294;2023-12-20T09:58:27;11.63;;;2.17;;
47089;SDS011;32840;52.516;13.294;2023-12-20T10:01:13;12.05;;;2.25;;
47089;SDS011;32840;52.516;13.294;2023-12-20T10:04:00;14.93;;;2.60;;
47089;SDS011;32840;52.516;13.294;2023-12-20T10:06:45;12.15;;;2.15;;
47089;SDS011;32840;52.516;13.294;2023-12-20T10:09:31;8.32;;;2.38;;
47089;SDS011;32840;52.516;13.294;2023-12-20T10:12:16;13.38;;;2.78;;
47089;SDS011;32840;52.516;13.294;2023-12-20T10:15:01;11.75;;;2.10;;
47089;SDS011;32840;52.516;13.294;2023-12-20T10:17:45;15.30;;;2.47;;
47089;SDS011;32840;52.516;13.294;2023-12-20T10:20:33;5.47;;;2.03;;
47089;SDS011;32840;52.516;13.294;2023-12-20T10:23:18;12.50;;;2.55;;
47089;SDS011;32840;52.516;13.294;2023-12-20T10:26:06;8.45;;;2.40;;
47089;SDS011;32840;52.516;13.294;2023-12-20T10:28:51;9.13;;;2.72;;
47089;SDS011;32840;52.516;13.294;2023-12-20T10:31:40;14.40;;;3.08;;
47089;SDS011;32840;52.516;13.294;2023-12-20T10:34:26;11.10;;;2.65;;
47089;SDS011;32840;52.516;13.294;2023-12-20T10:37:11;9.55;;;2.17;;
47089;SDS011;32840;52.516;13.294;2023-12-20T10:39:56;11.60;;;2.28;;
47089;SDS011;32840;52.516;13.294;2023-12-20T10:42:43;15.82;;;2.92;;
47089;SDS011;32840;52.516;13.294;2023-12-20T10:45:30;8.98;;;2.28;;
47089;SDS011;32840;52.516;13.294;2023-12-20T10:48:16;13.65;;;2.88;;
47089;SDS011;32840;52.516;13.294;2023-12-20T10:51:03;11.93;;;2.53;;
47089;SDS011;32840;52.516;13.294;2023-12-20T10:53:51;13.27;;;2.40;;
47089;SDS011;32840;52.516;13.294;2023-12-20T10:56:37;10.38;;;2.45;;
47089;SDS011;32840;52.516;13.294;2023-12-20T10:59:22;21.92;;;9.23;;
47089;SDS011;32840;52.516;13.294;2023-12-20T11:02:08;11.05;;;3.10;;
47089;SDS011;32840;52.516;13.294;2023-12-20T11:05:06;9.77;;;3.50;;
47089;SDS011;32840;52.516;13.294;2023-12-20T11:11:31;12.30;;;3.25;;
47089;SDS011;32840;52.516;13.294;2023-12-20T11:14:49;10.27;;;2.45;;
47089;SDS011;32840;52.516;13.294;2023-12-20T11:17:38;10.73;;;3.00;;
47089;SDS011;32840;52.516;13.294;2023-12-20T11:20:35;13.60;;;2.88;;
47089;SDS011;32840;52.516;13.294;2023-12-20T11:23:22;7.70;;;2.50;;
47089;SDS011;32840;52.516;13.294;2023-12-20T11:26:08;19.60;;;6.40;;
47089;SDS011;32840;52.516;13.294;2023-12-20T11:28:53;10.15;;;2.60;;
47089;SDS011;32840;52.516;13.294;2023-12-20T11:32:01;16.05;;;3.03;;
47089;SDS011;32840;52.516;13.294;2023-12-20T11:34:50;15.30;;;3.00;;
47089;SDS011;32840;52.516;13.294;2023-12-20T11:37:40;11.55;;;3.05;;
47089;SDS011;32840;52.516;13.294;2023-12-20T11:40:29;11.90;;;3.08;;
47089;SDS011;32840;52.516;13.294;2023-12-20T11:43:35;7.35;;;2.65;;
47089;SDS011;32840;52.516;13.294;2023-12-20T11:46:20;14.95;;;3.83;;
47089;SDS011;32840;52.516;13.294;2023-12-20T11:49:06;9.00;;;2.75;;
47089;SDS011;32840;52.516;13.294;2023-12-20T11:51:55;13.45;;;3.13;;
47089;SDS011;32840;52.516;13.294;2023-12-20T11:54:40;7.32;;;3.20;;
47089;SDS011;32840;52.516;13.294;2023-12-20T11:57:25;7.82;;;2.50;;
47089;SDS011;32840;52.516;13.294;2023-12-20T12:00:09;11.73;;;2.50;;
47089;SDS011;32840;52.516;13.294;2023-12-20T12:02:55;15.63;;;3.13;;
47089;SDS011;32840;52.516;13.294;2023-12-20T12:05:43;9.82;;;2.33;;
47089;SDS011;32840;52.516;13.294;2023-12-20T12:08:33;10.55;;;2.45;;
47089;SDS011;32840;52.516;13.294;2023-12-20T12:11:19;10.95;;;2.60;;
47089;SDS011;32840;52.516;13.294;2023-12-20T12:14:04;8.43;;;2.63;;
47089;SDS011;32840;52.516;13.294;2023-12-20T12:16:51;10.25;;;3.53;;
47089;SDS011;32840;52.516;13.294;2023-12-20T12:19:38;13.52;;;2.72;;
47089;SDS011;32840;52.516;13.294;2023-12-20T12:22:24;11.13;;;3.10;;
47089;SDS011;32840;52.516;13.294;2023-12-20T12:25:11;11.57;;;3.38;;
47089;SDS011;32840;52.516;13.294;2023-12-20T12:27:58;9.85;;;2.25;;
47089;SDS011;32840;52.516;13.294;2023-12-20T12:31:07;12.45;;;3.25;;
47089;SDS011;32840;52.516;13.294;2023-12-20T12:33:51;11.32;;;3.33;;
47089;SDS011;32840;52.516;13.294;2023-12-20T12:36:35;7.15;;;2.05;;
47089;SDS011;32840;52.516;13.294;2023-12-20T12:39:21;13.77;;;2.78;;
47089;SDS011;32840;52.516;13.294;2023-12-20T12:42:09;11.98;;;3.42;;
47089;SDS011;32840;52.516;13.294;2023-12-20T12:44:54;8.30;;;2.92;;
47089;SDS011;32840;52.516;13.294;2023-12-20T12:47:40;11.45;;;2.65;;
47089;SDS011;32840;52.516;13.294;2023-12-20T12:50:25;9.32;;;3.25;;
47089;SDS011;32840;52.516;13.294;2023-12-20T12:53:12;10.15;;;2.33;;
47089;SDS011;32840;52.516;13.294;2023-12-20T12:55:57;10.80;;;3.03;;
47089;SDS011;32840;52.516;13.294;2023-12-20T12:58:42;9.18;;;3.53;;
47089;SDS011;32840;52.516;13.294;2023-12-20T13:01:29;11.82;;;2.45;;
47089;SDS011;32840;52.516;13.294;2023-12-20T13:04:13;10.07;;;2.92;;
47089;SDS011;32840;52.516;13.294;2023-12-20T13:06:58;12.40;;;2.88;;
47089;SDS011;32840;52.516;13.294;2023-12-20T13:09:43;13.30;;;2.92;;
47089;SDS011;32840;52.516;13.294;2023-12-20T13:12:28;10.32;;;3.17;;
47089;SDS011;32840;52.516;13.294;2023-12-20T13:15:13;13.18;;;2.95;;
47089;SDS011;32840;52.516;13.294;2023-12-20T13:18:00;10.43;;;3.70;;
47089;SDS011;32840;52.516;13.294;2023-12-20T13:20:49;13.63;;;3.63;;
47089;SDS011;32840;52.516;13.294;2023-12-20T13:23:35;11.43;;;2.90;;
47089;SDS011;32840;52.516;13.294;2023-12-20T13:26:23;5.72;;;2.00;;
47089;SDS011;32840;52.516;13.294;2023-12-20T13:29:11;5.07;;;1.15;;
47089;SDS011;32840;52.516;13.294;2023-12-20T13:31:58;2.47;;;1.10;;
47089;SDS011;32840;52.516;13.294;2023-12-20T13:34:47;4.97;;;1.08;;
47089;SDS011;32840;52.516;13.294;2023-12-20T13:37:41;2.88;;;1.38;;
47089;SDS011;32840;52.516;13.294;2023-12-20T13:40:33;3.72;;;0.85;;
47089;SDS011;32840;52.516;13.294;2023-12-20T13:43:21;2.72;;;0.70;;
47089;SDS011;32840;52.516;13.294;2023-12-20T13:46:11;5.63;;;1.48;;
47089;SDS011;32840;52.516;13.294;2023-12-20T13:48:58;2.83;;;1.02;;
47089;SDS011;32840;52.516;13.294;2023-12-20T13:51:46;2.78;;;0.90;;
47089;SDS011;32840;52.516;13.294;2023-12-20T13:54:35;2.83;;;0.95;;
47089;SDS011;32840;52.516;13.294;2023-12-20T13:57:19;6.80;;;1.45;;
47089;SDS011;32840;52.516;13.294;2023-12-20T14:00:04;4.72;;;1.15;;
47089;SDS011;32840;52.516;13.294;2023-12-20T14:02:50;6.60;;;1.90;;
47089;SDS011;32840;52.516;13.294;2023-12-20T14:05:35;4.70;;;1.13;;
47089;SDS011;32840;52.516;13.294;2023-12-20T14:08:20;6.40;;;1.65;;
47089;SDS011;32840;52.516;13.294;2023-12-20T14:11:07;4.57;;;1.55;;
47089;SDS011;32840;52.516;13.294;2023-12-20T14:13:52;4.60;;;1.20;;
47089;SDS011;32840;52.516;13.294;2023-12-20T14:16:36;3.03;;;0.90;;
47089;SDS011;32840;52.516;13.294;2023-12-20T14:19:22;4.35;;;0.88;;
47089;SDS011;32840;52.516;13.294;2023-12-20T14:22:07;2.45;;;0.77;;
47089;SDS011;32840;52.516;13.294;2023-12-20T14:24:51;1.80;;;0.65;;
47089;SDS011;32840;52.516;13.294;2023-12-20T14:27:38;2.58;;;0.57;;
47089;SDS011;32840;52.516;13.294;2023-12-20T14:30:28;3.83;;;0.90;;
47089;SDS011;32840;52.516;13.294;2023-12-20T14:33:13;2.03;;;0.80;;
47089;SDS011;32840;52.516;13.294;2023-12-20T14:35:58;3.53;;;0.98;;
47089;SDS011;32840;52.516;13.294;2023-12-20T14:38:43;1.85;;;0.60;;
47089;SDS011;32840;52.516;13.294;2023-12-20T14:41:31;2.65;;;0.70;;
47089;SDS011;32840;52.516;13.294;2023-12-20T14:44:17;2.42;;;0.65;;
47089;SDS011;32840;52.516;13.294;2023-12-20T14:47:01;1.95;;;0.52;;
47089;SDS011;32840;52.516;13.294;2023-12-20T14:49:46;4.53;;;1.45;;
47089;SDS011;32840;52.516;13.294;2023-12-20T14:52:35;5.15;;;1.05;;
47089;SDS011;32840;52.516;13.294;2023-12-20T14:55:19;2.50;;;0.70;;
47089;SDS011;32840;52.516;13.294;2023-12-20T14:58:05;4.05;;;1.20;;
47089;SDS011;32840;52.516;13.294;2023-12-20T15:00:50;3.10;;;0.70;;
47089;SDS011;32840;52.516;13.294;2023-12-20T15:03:35;5.68;;;1.52;;
47089;SDS011;32840;52.516;13.294;2023-12-20T15:06:20;5.15;;;1.52;;
47089;SDS011;32840;52.516;13.294;2023-12-20T15:09:04;8.07;;;1.15;;
47089;SDS011;32840;52.516;13.294;2023-12-20T15:11:50;4.57;;;1.83;;
47089;SDS011;32840;52.516;13.294;2023-12-20T15:14:38;6.07;;;1.92;;
47089;SDS011;32840;52.516;13.294;2023-12-20T15:17:26;3.88;;;1.30;;
47089;SDS011;32840;52.516;13.294;2023-12-20T15:20:16;3.03;;;1.08;;
47089;SDS011;32840;52.516;13.294;2023-12-20T15:23:02;7.07;;;1.20;;
47089;SDS011;32840;52.516;13.294;2023-12-20T15:25:51;5.57;;;1.23;;
47089;SDS011;32840;52.516;13.294;2023-12-20T15:28:40;3.85;;;1.30;;
47089;SDS011;32840;52.516;13.294;2023-12-20T15:31:27;3.55;;;1.02;;
47089;SDS011;32840;52.516;13.294;2023-12-20T15:34:13;4.20;;;1.35;;
47089;SDS011;32840;52.516;13.294;2023-12-20T15:36:58;5.90;;;1.25;;
47089;SDS011;32840;52.516;13.294;2023-12-20T15:39:43;5.30;;;1.30;;
47089;SDS011;32840;52.516;13.294;2023-12-20T15:42:28;3.45;;;1.17;;
47089;SDS011;32840;52.516;13.294;2023-12-20T15:45:15;7.70;;;1.40;;
47089;SDS011;32840;52.516;13.294;2023-12-20T15:47:59;5.35;;;1.50;;
47089;SDS011;32840;52.516;13.294;2023-12-20T15:50:44;5.45;;;1.55;;
47089;SDS011;32840;52.516;13.294;2023-12-20T15:53:31;5.18;;;1.02;;
47089;SDS011;32840;52.516;13.294;2023-12-20T15:56:16;5.97;;;1.70;;
47089;SDS011;32840;52.516;13.294;2023-12-20T15:59:02;5.05;;;1.45;;
47089;SDS011;32840;52.516;13.294;2023-12-20T16:01:48;6.18;;;1.20;;
47089;SDS011;32840;52.516;13.294;2023-12-20T16:04:33;6.82;;;1.98;;
47089;SDS011;32840;52.516;13.294;2023-12-20T16:07:19;5.18;;;1.50;;
47089;SDS011;32840;52.516;13.294;2023-12-20T16:10:04;3.38;;;1.08;;
47089;SDS011;32840;52.516;13.294;2023-12-20T16:12:50;6.32;;;1.75;;
47089;SDS011;32840;52.516;13.294;2023-12-20T16:15:35;9.10;;;3.47;;
47089;SDS011;32840;52.516;13.294;2023-12-20T16:18:20;7.68;;;1.40;;
47089;SDS011;32840;52.516;13.294;2023-12-20T16:21:05;8.45;;;1.70;;
47089;SDS011;32840;52.516;13.294;2023-12-20T16:23:50;3.65;;;1.73;;
47089;SDS011;32840;52.516;13.294;2023-12-20T16:26:35;6.32;;;1.85;;
47089;SDS011;32840;52.516;13.294;2023-12-20T16:29:21;7.35;;;2.13;;
47089;SDS011;32840;52.516;13.294;2023-12-20T16:32:06;9.07;;;1.50;;